KITH/ITH METAR and TAF weather

Enter ICAO airport designator
Station Type Date Time Source
KITH METAR 2020/01/23 17:56 UTC NOAA

KITH 231756Z 16009KT 10SM CLR 04/M08 A3028 RMK AO2 SLP264 T00391083 10039 21072 58014


Station Type Date Time Source
KITH Decoded METAR 2020/01/23 17:56 UTC NOAA

Ithaca, Ithaca Tompkins Regional Airport, NY, United States (KITH) 42-29-27N 076-27-30W
Jan 23, 2020 - 12:56 PM EST / 2020.01.23 1756 UTC
Wind: from the SSE (160 degrees) at 10 MPH (9 KT):0
Visibility: 10 mile(s):0
Sky conditions: clear
Temperature: 39.0 F (3.9 C)
Dew Point: 17.1 F (-8.3 C)
Relative Humidity: 40%
Pressure (altimeter): 30.28 in. Hg (1025 hPa)
Pressure tendency: 0.04 inches (1.4 hPa) lower than three hours ago
ob: KITH 231756Z 16009KT 10SM CLR 04/M08 A3028 RMK AO2 SLP264 T00391083 10039 21072 58014
cycle: 18

Station Type Date Time Source
KITH TAF 2020/01/23 18:33 UTC NOAA

TAF KITH 231731Z 2318/2418 16005KT P6SM BKN250
FM240900 13005KT P6SM BKN150

Example: see airport list